createdAt,value
2022-09-12T00:00:10.774Z,101892.94
2022-09-12T00:02:37.164Z,101895.72
2022-09-12T00:05:04.369Z,101892.47
2022-09-12T00:07:30.708Z,101894.44
2022-09-12T00:09:57.179Z,101892.81
2022-09-12T00:12:23.560Z,101892.34
2022-09-12T00:14:49.932Z,101886.50
2022-09-12T00:17:16.373Z,101881.63
2022-09-12T00:19:42.771Z,101883.56
2022-09-12T00:22:09.290Z,101867.53
2022-09-12T00:24:35.622Z,101872.72
2022-09-12T00:27:01.980Z,101871.41
2022-09-12T00:29:28.388Z,101872.72
2022-09-12T00:31:54.773Z,101867.03
2022-09-12T00:34:21.172Z,101862.28
2022-09-12T00:36:47.567Z,101851.69
2022-09-12T00:39:17.968Z,101861.97
2022-09-12T00:41:44.829Z,101860.50
2022-09-12T00:44:37.092Z,101855.13
2022-09-12T00:47:11.235Z,101859.03
2022-09-12T00:49:49.771Z,101857.69
2022-09-12T00:52:23.013Z,101856.56
2022-09-12T00:55:14.206Z,101855.59
2022-09-12T00:57:49.705Z,101852.81
2022-09-12T01:00:19.438Z,101851.97
2022-09-12T01:02:50.770Z,101854.75
2022-09-12T01:05:18.271Z,101854.91
2022-09-12T01:07:48.420Z,101851.22
2022-09-12T01:10:17.273Z,101856.75
2022-09-12T01:12:44.302Z,101852.50
2022-09-12T01:15:11.058Z,101846.50
2022-09-12T01:18:02.819Z,101846.66
2022-09-12T01:20:50.943Z,101846.50
2022-09-12T01:23:56.724Z,101848.13
2022-09-12T01:27:05.917Z,101843.72
2022-09-12T01:29:57.280Z,101839.47
2022-09-12T01:32:39.146Z,101834.97
2022-09-12T01:35:16.739Z,101833.81
2022-09-12T01:37:51.492Z,101835.78
2022-09-12T01:40:29.683Z,101829.13
2022-09-12T01:43:10.207Z,101833.66
2022-09-12T01:45:58.191Z,101827.97
2022-09-12T01:48:35.970Z,101831.53
2022-09-12T01:51:20.935Z,101826.66
2022-09-12T01:54:01.907Z,101827.47
2022-09-12T01:56:33.000Z,101821.00
2022-09-12T01:59:06.064Z,101811.22
2022-09-12T02:01:36.423Z,101813.53
2022-09-12T02:04:17.430Z,101800.38
2022-09-12T02:06:49.682Z,101802.31
2022-09-12T02:09:19.861Z,101806.06
2022-09-12T02:11:48.096Z,101796.78
2022-09-12T02:14:28.249Z,101792.91
2022-09-12T02:16:59.969Z,101788.81
2022-09-12T02:19:34.454Z,101791.59
2022-09-12T02:22:04.648Z,101794.19
2022-09-12T02:24:39.306Z,101797.09
2022-09-12T02:27:16.572Z,101789.13
2022-09-12T02:29:44.879Z,101792.72
2022-09-12T02:32:38.142Z,101789.50
2022-09-12T02:35:33.737Z,101788.34
2022-09-12T02:38:14.287Z,101793.38
2022-09-12T02:40:41.261Z,101786.53
2022-09-12T02:43:07.819Z,101779.72
2022-09-12T02:45:35.793Z,101778.91
2022-09-12T02:48:14.976Z,101779.41
2022-09-12T02:50:42.046Z,101772.09
2022-09-12T02:53:10.605Z,101767.56
2022-09-12T02:55:39.921Z,101770.63
2022-09-12T02:58:11.874Z,101766.91
2022-09-12T03:00:48.486Z,101769.50
2022-09-12T03:03:26.791Z,101758.44
2022-09-12T03:06:00.262Z,101760.22
2022-09-12T03:08:52.866Z,101758.25
2022-09-12T03:11:30.896Z,101753.38
2022-09-12T03:14:25.059Z,101755.50
2022-09-12T03:17:13.321Z,101749.81
2022-09-12T03:20:00.544Z,101755.81
2022-09-12T03:22:53.796Z,101747.84
2022-09-12T03:25:28.477Z,101757.28
2022-09-12T03:28:07.511Z,101754.38
2022-09-12T03:30:40.636Z,101755.66
2022-09-12T03:33:11.460Z,101757.91
2022-09-12T03:35:38.233Z,101752.25
2022-09-12T03:38:05.132Z,101749.00
2022-09-12T03:40:31.498Z,101752.56
2022-09-12T03:42:57.880Z,101747.53
2022-09-12T03:45:24.218Z,101750.47
2022-09-12T03:47:50.699Z,101745.59
2022-09-12T03:50:17.489Z,101745.09
2022-09-12T03:52:43.870Z,101742.50
2022-09-12T03:55:10.944Z,101742.81
2022-09-12T03:57:37.334Z,101740.06
2022-09-12T04:00:06.469Z,101732.25
2022-09-12T04:02:32.928Z,101729.81
2022-09-12T04:04:59.372Z,101734.69
2022-09-12T04:07:25.893Z,101730.00
2022-09-12T04:09:53.183Z,101722.19
2022-09-12T04:12:20.413Z,101723.53
2022-09-12T04:14:46.742Z,101722.38
2022-09-12T04:17:14.213Z,101719.59
2022-09-12T04:19:40.576Z,101726.75
2022-09-12T04:22:06.985Z,101731.16
2022-09-12T04:24:33.452Z,101734.06
2022-09-12T04:26:59.795Z,101733.41
2022-09-12T04:29:26.318Z,101729.19
2022-09-12T04:31:52.880Z,101733.59
2022-09-12T04:34:19.462Z,101730.31
2022-09-12T04:36:45.808Z,101731.16
2022-09-12T04:39:12.374Z,101719.59
2022-09-12T04:41:40.467Z,101731.28
2022-09-12T04:44:11.546Z,101731.94
2022-09-12T04:46:40.321Z,101722.50
2022-09-12T04:49:07.338Z,101727.56
2022-09-12T04:51:35.936Z,101724.78
2022-09-12T04:54:06.193Z,101733.06
2022-09-12T04:56:34.330Z,101719.72
2022-09-12T04:59:01.356Z,101730.28
2022-09-12T05:01:29.750Z,101723.25
2022-09-12T05:03:57.702Z,101727.63
2022-09-12T05:06:27.168Z,101727.13
2022-09-12T05:08:53.751Z,101720.44
2022-09-12T05:11:26.592Z,101716.53
2022-09-12T05:13:56.877Z,101722.03
2022-09-12T05:16:26.579Z,101711.94
2022-09-12T05:18:53.235Z,101713.88
2022-09-12T05:21:21.671Z,101718.22
2022-09-12T05:23:51.476Z,101726.34
2022-09-12T05:26:20.448Z,101723.88
2022-09-12T05:28:48.566Z,101721.38
2022-09-12T05:31:17.978Z,101714.34
2022-09-12T05:33:47.581Z,101717.75
2022-09-12T05:36:17.731Z,101714.69
2022-09-12T05:38:44.821Z,101716.31
2022-09-12T05:41:26.067Z,101717.34
2022-09-12T05:43:54.828Z,101712.03
2022-09-12T05:46:25.664Z,101707.34
2022-09-12T05:48:56.298Z,101709.94
2022-09-12T05:51:28.405Z,101712.53
2022-09-12T05:53:59.934Z,101706.53
2022-09-12T05:56:29.240Z,101700.53
2022-09-12T05:58:59.098Z,101710.13
2022-09-12T06:01:27.105Z,101705.72
2022-09-12T06:03:55.788Z,101701.16
2022-09-12T06:06:24.472Z,101700.97
2022-09-12T06:08:53.247Z,101708.78
2022-09-12T06:11:23.061Z,101716.44
2022-09-12T06:13:50.955Z,101703.22
2022-09-12T06:16:19.568Z,101714.13
2022-09-12T06:18:50.924Z,101716.38
2022-09-12T06:21:17.753Z,101714.06
2022-09-12T06:23:46.270Z,101714.34
2022-09-12T06:26:13.005Z,101716.06
2022-09-12T06:28:41.621Z,101711.94
2022-09-12T06:31:11.671Z,101716.28
2022-09-12T06:33:40.858Z,101711.25
2022-09-12T06:36:12.935Z,101720.91
2022-09-12T06:38:40.284Z,101717.78
2022-09-12T06:41:08.957Z,101708.88
2022-09-12T06:43:35.388Z,101700.97
2022-09-12T06:46:02.274Z,101695.84
2022-09-12T06:48:29.347Z,101698.34
2022-09-12T06:51:07.590Z,101700.28
2022-09-12T06:53:34.477Z,101706.50
2022-09-12T06:56:18.261Z,101689.66
2022-09-12T06:58:46.906Z,101692.59
2022-09-12T07:01:15.787Z,101683.47
2022-09-12T07:03:46.869Z,101678.81
2022-09-12T07:06:14.860Z,101689.19
2022-09-12T07:08:41.479Z,101688.63
2022-09-12T07:11:23.867Z,101685.50
2022-09-12T07:13:52.892Z,101690.53
2022-09-12T07:16:20.262Z,101686.66
2022-09-12T07:18:55.031Z,101680.75
2022-09-12T07:21:21.735Z,101682.06
2022-09-12T07:23:48.866Z,101690.63
2022-09-12T07:26:16.594Z,101696.44
2022-09-12T07:28:43.054Z,101699.22
2022-09-12T07:31:12.652Z,101693.53
2022-09-12T07:33:39.994Z,101686.47
2022-09-12T07:36:10.679Z,101684.72
2022-09-12T07:38:38.190Z,101685.19
2022-09-12T07:41:15.480Z,101679.78
2022-09-12T07:43:43.977Z,101674.19
2022-09-12T07:46:10.736Z,101681.09
2022-09-12T07:48:38.319Z,101684.75
2022-09-12T07:51:10.007Z,101681.25
2022-09-12T07:53:41.581Z,101679.91
2022-09-12T07:56:10.375Z,101685.50
2022-09-12T07:58:38.811Z,101686.00
2022-09-12T08:01:09.033Z,101688.03
2022-09-12T08:03:36.296Z,101691.38
2022-09-12T08:06:06.822Z,101692.06
2022-09-12T08:08:33.651Z,101687.34
2022-09-12T08:11:01.471Z,101691.28
2022-09-12T08:13:28.872Z,101689.44
2022-09-12T08:16:00.101Z,101692.31
2022-09-12T08:18:28.240Z,101694.38
2022-09-12T08:21:02.510Z,101694.03
2022-09-12T08:23:29.533Z,101696.44
2022-09-12T08:26:06.185Z,101699.94
2022-09-12T08:28:35.172Z,101697.19
2022-09-12T08:31:06.691Z,101693.50
2022-09-12T08:33:34.074Z,101691.56
2022-09-12T08:36:22.632Z,101685.63
2022-09-12T08:38:56.319Z,101695.97
2022-09-12T08:41:46.773Z,101688.38
2022-09-12T08:44:47.528Z,101698.03
2022-09-12T08:47:40.097Z,101691.94
2022-09-12T08:50:12.813Z,101698.00
2022-09-12T08:52:47.900Z,101696.25
2022-09-12T08:55:27.947Z,101694.63
2022-09-12T08:57:54.539Z,101688.50
2022-09-12T09:00:21.890Z,101690.41
2022-09-12T09:03:19.919Z,101678.97
2022-09-12T09:06:07.037Z,101680.50
2022-09-12T09:08:50.931Z,101676.16
2022-09-12T09:11:48.245Z,101670.16
2022-09-12T09:14:50.705Z,101668.28
2022-09-12T09:17:25.226Z,101668.03
2022-09-12T09:20:02.667Z,101660.03
2022-09-12T09:22:55.389Z,101658.75
2022-09-12T09:26:00.394Z,101657.38
2022-09-12T09:28:34.234Z,101658.47
2022-09-12T09:31:02.008Z,101655.09
2022-09-12T09:33:33.761Z,101664.31
2022-09-12T09:36:25.848Z,101652.16
2022-09-12T09:38:55.240Z,101657.25
2022-09-12T09:41:24.503Z,101649.88
2022-09-12T09:43:51.183Z,101659.69
2022-09-12T09:46:18.154Z,101657.41
2022-09-12T09:48:47.751Z,101658.59
2022-09-12T09:51:16.960Z,101654.94
2022-09-12T09:53:48.791Z,101650.91
2022-09-12T09:56:34.720Z,101645.91
2022-09-12T09:59:26.816Z,101642.97
2022-09-12T10:01:56.736Z,101642.53
2022-09-12T10:04:29.420Z,101637.31
2022-09-12T10:07:01.619Z,101638.69
2022-09-12T10:09:33.468Z,101641.88
2022-09-12T10:12:02.147Z,101642.59
2022-09-12T10:14:41.476Z,101633.56
2022-09-12T10:17:48.619Z,101626.41
2022-09-12T10:20:36.280Z,101627.53
2022-09-12T10:23:37.315Z,101619.50
2022-09-12T10:26:09.918Z,101621.09
2022-09-12T10:28:40.113Z,101612.94
2022-09-12T10:31:13.832Z,101607.47
2022-09-12T10:33:46.388Z,101609.91
2022-09-12T10:36:13.495Z,101604.28
2022-09-12T10:38:49.535Z,101606.19
2022-09-12T10:41:16.032Z,101600.13
2022-09-12T10:43:42.511Z,101597.09
2022-09-12T10:46:14.938Z,101602.38
2022-09-12T10:48:42.294Z,101596.72
2022-09-12T10:51:23.874Z,101589.69
2022-09-12T10:53:53.457Z,101586.97
2022-09-12T10:56:31.903Z,101586.03
2022-09-12T10:59:34.284Z,101581.81
2022-09-12T11:02:00.656Z,101585.03
2022-09-12T11:04:58.275Z,101575.22
2022-09-12T11:08:03.313Z,101580.88
2022-09-12T11:10:46.568Z,101580.13
2022-09-12T11:13:40.638Z,101587.00
2022-09-12T11:16:13.505Z,101583.56
2022-09-12T11:19:03.270Z,101584.94
2022-09-12T11:21:50.726Z,101581.09
2022-09-12T11:24:38.123Z,101576.38
2022-09-12T11:27:22.900Z,101574.00
2022-09-12T11:29:59.163Z,101570.91
2022-09-12T11:32:47.580Z,101569.66
2022-09-12T11:35:29.558Z,101567.00
2022-09-12T11:38:37.518Z,101574.69
2022-09-12T11:41:08.254Z,101578.72
2022-09-12T11:43:40.894Z,101567.84
2022-09-12T11:46:21.260Z,101567.31
2022-09-12T11:49:01.014Z,101562.03
2022-09-12T11:51:37.290Z,101559.88
2022-09-12T11:54:14.238Z,101556.69
2022-09-12T11:56:46.223Z,101555.91
2022-09-12T11:59:25.736Z,101560.97
2022-09-12T12:01:59.590Z,101556.16
2022-09-12T12:04:36.962Z,101560.44
2022-09-12T12:07:07.448Z,101554.59
2022-09-12T12:09:34.538Z,101546.38
2022-09-12T12:12:06.919Z,101546.09
2022-09-12T12:14:43.196Z,101538.06
2022-09-12T12:17:15.587Z,101540.47
2022-09-12T12:19:42.615Z,101535.41
2022-09-12T12:22:24.127Z,101527.47
2022-09-12T12:25:03.560Z,101533.56
2022-09-12T12:27:51.154Z,101528.75
2022-09-12T12:30:29.772Z,101538.66
2022-09-12T12:33:22.240Z,101521.41
2022-09-12T12:35:57.694Z,101529.38
2022-09-12T12:38:40.805Z,101523.81
2022-09-12T12:41:16.348Z,101529.09
2022-09-12T12:43:53.628Z,101530.97
2022-09-12T12:46:22.390Z,101519.78
2022-09-12T12:49:31.142Z,101524.59
2022-09-12T12:52:01.551Z,101517.41
2022-09-12T12:54:33.312Z,101502.53
2022-09-12T12:57:15.039Z,101499.31
2022-09-12T12:59:54.587Z,101497.69
2022-09-12T13:02:26.266Z,101493.16
2022-09-12T13:04:54.479Z,101485.19
2022-09-12T13:07:29.989Z,101488.94
2022-09-12T13:09:57.888Z,101490.78
2022-09-12T13:12:29.978Z,101475.91
2022-09-12T13:14:59.326Z,101479.34
2022-09-12T13:17:34.358Z,101473.25
2022-09-12T13:20:34.552Z,101466.31
2022-09-12T13:23:01.268Z,101460.69
2022-09-12T13:25:33.536Z,101454.53
2022-09-12T13:28:09.520Z,101450.28
2022-09-12T13:30:39.209Z,101450.03
2022-09-12T13:33:31.109Z,101446.31
2022-09-12T13:36:14.171Z,101447.13
2022-09-12T13:38:53.136Z,101448.16
2022-09-12T13:41:36.839Z,101448.94
2022-09-12T13:44:09.689Z,101442.63
2022-09-12T13:46:36.607Z,101441.31
2022-09-12T13:49:19.107Z,101441.81
2022-09-12T13:51:45.602Z,101443.41
2022-09-12T13:54:21.405Z,101438.13
2022-09-12T13:56:50.950Z,101436.78
2022-09-12T13:59:17.521Z,101441.28
2022-09-12T14:01:46.387Z,101439.13
2022-09-12T14:04:40.738Z,101433.72
2022-09-12T14:07:20.872Z,101425.69
2022-09-12T14:09:55.881Z,101425.38
2022-09-12T14:12:22.207Z,101426.44
2022-09-12T14:14:50.883Z,101423.50
2022-09-12T14:17:23.435Z,101420.06
2022-09-12T14:19:52.760Z,101421.09
2022-09-12T14:22:19.354Z,101424.06
2022-09-12T14:24:51.588Z,101420.28
2022-09-12T14:27:28.429Z,101410.78
2022-09-12T14:30:09.047Z,101403.03
2022-09-12T14:32:36.063Z,101397.97
2022-09-12T14:35:13.328Z,101388.69
2022-09-12T14:37:40.159Z,101387.38
2022-09-12T14:40:19.595Z,101388.47
2022-09-12T14:42:49.511Z,101380.75
2022-09-12T14:45:29.456Z,101377.94
2022-09-12T14:47:56.721Z,101381.19
2022-09-12T14:50:26.500Z,101379.94
2022-09-12T14:53:07.123Z,101377.13
2022-09-12T14:55:42.296Z,101373.81
2022-09-12T14:58:20.810Z,101380.22
2022-09-12T15:01:01.798Z,101372.28
2022-09-12T15:03:30.160Z,101370.81
2022-09-12T15:05:57.809Z,101367.66
2022-09-12T15:08:25.435Z,101366.16
2022-09-12T15:10:52.112Z,101371.19
2022-09-12T15:13:21.697Z,101375.16
2022-09-12T15:15:59.150Z,101373.22
2022-09-12T15:18:28.894Z,101374.09
2022-09-12T15:21:00.845Z,101374.09
2022-09-12T15:23:33.051Z,101365.63
2022-09-12T15:26:00.167Z,101359.25
2022-09-12T15:28:27.235Z,101363.06
2022-09-12T15:30:55.440Z,101358.59
2022-09-12T15:33:24.686Z,101353.25
2022-09-12T15:35:52.428Z,101355.13
2022-09-12T15:38:23.030Z,101357.22
2022-09-12T15:40:53.932Z,101348.16
2022-09-12T15:43:22.128Z,101353.50
2022-09-12T15:45:51.479Z,101345.47
2022-09-12T15:48:18.937Z,101337.00
2022-09-12T15:50:45.492Z,101349.81
2022-09-12T15:53:16.575Z,101346.34
2022-09-12T15:55:43.569Z,101334.28
2022-09-12T15:58:10.528Z,101324.13
2022-09-12T16:00:36.900Z,101329.38
2022-09-12T16:03:03.922Z,101325.13
2022-09-12T16:05:30.355Z,101328.59
2022-09-12T16:07:56.749Z,101323.56
2022-09-12T16:10:27.729Z,101317.72
2022-09-12T16:12:54.643Z,101316.16
2022-09-12T16:15:23.868Z,101324.22
2022-09-12T16:17:50.873Z,101313.59
2022-09-12T16:20:18.758Z,101311.78
2022-09-12T16:22:45.615Z,101308.34
2022-09-12T16:25:12.054Z,101305.19
2022-09-12T16:27:38.592Z,101309.69
2022-09-12T16:30:07.130Z,101298.53
2022-09-12T16:32:33.643Z,101303.38
2022-09-12T16:35:00.018Z,101298.59
2022-09-12T16:37:26.353Z,101293.81
2022-09-12T16:39:53.653Z,101294.34
2022-09-12T16:42:20.331Z,101285.59
2022-09-12T16:44:48.372Z,101289.84
2022-09-12T16:47:16.045Z,101297.78
2022-09-12T16:49:42.661Z,101301.22
2022-09-12T16:52:09.230Z,101294.06
2022-09-12T16:54:36.076Z,101291.41
2022-09-12T16:57:05.085Z,101287.91
2022-09-12T16:59:31.470Z,101286.56
2022-09-12T17:01:57.883Z,101283.88
2022-09-12T17:04:24.571Z,101272.19
2022-09-12T17:06:51.383Z,101265.81
2022-09-12T17:09:18.626Z,101259.13
2022-09-12T17:11:50.283Z,101257.75
2022-09-12T17:14:16.913Z,101256.38
2022-09-12T17:16:50.755Z,101257.41
2022-09-12T17:19:28.012Z,101248.34
2022-09-12T17:21:54.740Z,101253.63
2022-09-12T17:24:21.710Z,101257.25
2022-09-12T17:26:48.142Z,101250.34
2022-09-12T17:29:15.529Z,101249.47
2022-09-12T17:31:43.255Z,101243.22
2022-09-12T17:34:10.006Z,101246.84
2022-09-12T17:36:36.546Z,101252.09
2022-09-12T17:39:04.130Z,101250.72
2022-09-12T17:41:31.900Z,101258.59
2022-09-12T17:43:59.754Z,101268.59
2022-09-12T17:46:32.792Z,101269.06
2022-09-12T17:49:00.894Z,101269.50
2022-09-12T17:51:30.710Z,101260.84
2022-09-12T17:54:03.459Z,101265.16
2022-09-12T17:56:32.324Z,101267.16
2022-09-12T17:59:00.024Z,101266.22
2022-09-12T18:01:47.155Z,101259.28
2022-09-12T18:04:14.692Z,101256.50
2022-09-12T18:06:47.662Z,101252.91
2022-09-12T18:09:19.274Z,101250.31
2022-09-12T18:11:46.053Z,101250.97
2022-09-12T18:14:14.343Z,101256.53
2022-09-12T18:16:41.716Z,101254.66
2022-09-12T18:19:08.185Z,101258.56
2022-09-12T18:21:34.827Z,101265.22
2022-09-12T18:24:01.508Z,101258.63
2022-09-12T18:26:29.157Z,101265.75
2022-09-12T18:28:56.188Z,101267.84
2022-09-12T18:31:25.254Z,101272.22
2022-09-12T18:33:51.998Z,101267.09
2022-09-12T18:36:19.589Z,101274.63
2022-09-12T18:38:46.066Z,101269.47
2022-09-12T18:41:15.034Z,101265.94
2022-09-12T18:43:41.710Z,101268.50
2022-09-12T18:46:12.217Z,101269.19
2022-09-12T18:48:39.007Z,101261.19
2022-09-12T18:51:21.016Z,101255.72
2022-09-12T18:53:52.923Z,101258.63
2022-09-12T18:56:19.997Z,101253.03
2022-09-12T18:58:50.830Z,101253.28
2022-09-12T19:01:20.548Z,101257.88
2022-09-12T19:03:47.458Z,101256.50
2022-09-12T19:06:19.828Z,101252.63
2022-09-12T19:08:46.428Z,101236.84
2022-09-12T19:11:13.143Z,101232.38
2022-09-12T19:13:42.049Z,101227.34
2022-09-12T19:16:12.148Z,101238.09
2022-09-12T19:18:40.027Z,101229.19
2022-09-12T19:21:08.914Z,101229.44
2022-09-12T19:23:36.223Z,101230.34
2022-09-12T19:26:05.600Z,101225.16
2022-09-12T19:28:32.683Z,101221.91
2022-09-12T19:30:59.210Z,101217.59
2022-09-12T19:33:25.902Z,101219.50
2022-09-12T19:35:52.419Z,101219.97
2022-09-12T19:38:19.078Z,101223.16
2022-09-12T19:40:55.805Z,101222.91
2022-09-12T19:43:22.216Z,101221.44
2022-09-12T19:45:48.557Z,101218.72
2022-09-12T19:48:15.052Z,101223.53
2022-09-12T19:50:41.491Z,101229.59
2022-09-12T19:53:08.199Z,101231.19
2022-09-12T19:55:35.486Z,101239.88
2022-09-12T19:58:02.256Z,101241.72
2022-09-12T20:00:28.774Z,101233.59
2022-09-12T20:02:55.302Z,101230.75
2022-09-12T20:05:21.701Z,101227.84
2022-09-12T20:07:48.339Z,101221.00
2022-09-12T20:10:15.314Z,101228.13
2022-09-12T20:12:42.228Z,101228.56
2022-09-12T20:15:09.120Z,101215.25
2022-09-12T20:17:36.228Z,101212.75
2022-09-12T20:20:03.098Z,101206.13
2022-09-12T20:22:29.464Z,101206.13
2022-09-12T20:24:55.873Z,101202.53
2022-09-12T20:27:22.248Z,101210.41
2022-09-12T20:29:48.596Z,101196.91
2022-09-12T20:32:14.974Z,101191.75
2022-09-12T20:34:41.331Z,101195.41
2022-09-12T20:37:07.890Z,101207.75
2022-09-12T20:39:34.412Z,101204.75
2022-09-12T20:42:00.748Z,101213.09
2022-09-12T20:44:27.511Z,101206.69
2022-09-12T20:46:54.060Z,101197.28
2022-09-12T20:49:20.857Z,101200.00
2022-09-12T20:51:48.469Z,101205.47
2022-09-12T20:54:14.860Z,101219.41
2022-09-12T20:56:41.228Z,101218.41
2022-09-12T20:59:08.163Z,101211.09
2022-09-12T21:01:34.796Z,101211.91
2022-09-12T21:04:02.163Z,101215.91
2022-09-12T21:06:28.675Z,101210.66
2022-09-12T21:08:59.560Z,101213.06
2022-09-12T21:11:27.371Z,101208.63
2022-09-12T21:13:54.801Z,101201.75
2022-09-12T21:16:22.837Z,101191.91
2022-09-12T21:18:58.237Z,101189.50
2022-09-12T21:21:25.856Z,101186.28
2022-09-12T21:23:54.052Z,101189.13
2022-09-12T21:26:20.888Z,101196.22
2022-09-12T21:28:48.308Z,101185.72
2022-09-12T21:31:14.726Z,101189.94
2022-09-12T21:33:41.179Z,101194.41
2022-09-12T21:36:08.633Z,101206.50
2022-09-12T21:38:35.096Z,101208.91
2022-09-12T21:41:10.276Z,101196.59
2022-09-12T21:43:37.626Z,101196.59
2022-09-12T21:46:05.732Z,101199.00
2022-09-12T21:48:32.723Z,101198.16
2022-09-12T21:50:59.986Z,101195.75
2022-09-12T21:53:26.629Z,101190.16
2022-09-12T21:55:53.343Z,101192.00
2022-09-12T21:58:19.819Z,101196.69
2022-09-12T22:00:46.450Z,101198.25
2022-09-12T22:03:12.938Z,101203.50
2022-09-12T22:05:43.099Z,101203.50
2022-09-12T22:08:10.760Z,101198.25
2022-09-12T22:10:38.482Z,101205.13
2022-09-12T22:13:05.422Z,101205.13
2022-09-12T22:15:40.898Z,101203.28
2022-09-12T22:18:07.680Z,101207.53
2022-09-12T22:20:34.020Z,101206.50
2022-09-12T22:23:23.802Z,101196.81
2022-09-12T22:25:55.212Z,101206.28
2022-09-12T22:28:22.109Z,101201.84
2022-09-12T22:30:48.658Z,101202.84
2022-09-12T22:33:15.368Z,101204.13
2022-09-12T22:35:42.539Z,101193.00
2022-09-12T22:38:09.361Z,101185.94
2022-09-12T22:40:35.756Z,101181.47
2022-09-12T22:43:02.280Z,101176.44
2022-09-12T22:45:28.835Z,101174.81
2022-09-12T22:47:56.391Z,101176.66
2022-09-12T22:50:25.574Z,101174.03
2022-09-12T22:52:52.615Z,101180.91
2022-09-12T22:55:19.186Z,101169.13
2022-09-12T22:57:45.530Z,101169.34
2022-09-12T23:00:12.637Z,101164.94
2022-09-12T23:02:39.015Z,101161.53
2022-09-12T23:05:06.079Z,101157.06
2022-09-12T23:07:33.451Z,101153.63
2022-09-12T23:09:59.916Z,101148.16
2022-09-12T23:12:26.281Z,101145.53
2022-09-12T23:14:52.718Z,101145.53
2022-09-12T23:17:19.056Z,101139.47
2022-09-12T23:19:45.463Z,101146.53
2022-09-12T23:22:11.830Z,101152.06
2022-09-12T23:24:38.375Z,101145.97
2022-09-12T23:27:05.175Z,101157.31
2022-09-12T23:29:34.299Z,101149.66
2022-09-12T23:32:02.222Z,101146.19
2022-09-12T23:34:29.154Z,101145.06
2022-09-12T23:36:56.375Z,101144.47
2022-09-12T23:39:23.354Z,101139.41
2022-09-12T23:41:50.569Z,101137.41
2022-09-12T23:44:16.952Z,101128.47
2022-09-12T23:46:43.359Z,101132.13
2022-09-12T23:49:09.770Z,101129.72
2022-09-12T23:51:36.131Z,101134.16
2022-09-12T23:54:02.704Z,101126.28
2022-09-12T23:56:29.072Z,101120.91
2022-09-12T23:58:55.469Z,101120.31
